sensor_id;sensor_type;location;lat;lon;timestamp;temperature;humidity
73509;SHT30;61750;55.036;73.312;2023-02-18T00:00:55;-14.61;73.32
73509;SHT30;61750;55.036;73.312;2023-02-18T00:03:23;-14.55;73.56
73509;SHT30;61750;55.036;73.312;2023-02-18T00:05:52;-14.51;73.39
73509;SHT30;61750;55.036;73.312;2023-02-18T00:08:20;-14.45;73.41
73509;SHT30;61750;55.036;73.312;2023-02-18T00:10:52;-14.45;73.26
73509;SHT30;61750;55.036;73.312;2023-02-18T00:13:18;-14.42;73.15
73509;SHT30;61750;55.036;73.312;2023-02-18T00:15:52;-14.35;73.37
73509;SHT30;61750;55.036;73.312;2023-02-18T00:18:23;-14.32;73.06
73509;SHT30;61750;55.036;73.312;2023-02-18T00:20:52;-14.31;73.12
73509;SHT30;61750;55.036;73.312;2023-02-18T00:23:18;-14.29;72.91
73509;SHT30;61750;55.036;73.312;2023-02-18T00:25:52;-14.28;72.99
73509;SHT30;61750;55.036;73.312;2023-02-18T00:28:33;-14.22;73.17
73509;SHT30;61750;55.036;73.312;2023-02-18T00:31:04;-14.18;73.02
73509;SHT30;61750;55.036;73.312;2023-02-18T00:33:36;-14.10;73.09
73509;SHT30;61750;55.036;73.312;2023-02-18T00:36:03;-14.07;72.97
73509;SHT30;61750;55.036;73.312;2023-02-18T00:38:29;-13.95;73.05
73509;SHT30;61750;55.036;73.312;2023-02-18T00:41:00;-13.90;72.70
73509;SHT30;61750;55.036;73.312;2023-02-18T00:43:31;-13.90;72.57
73509;SHT30;61750;55.036;73.312;2023-02-18T00:45:57;-13.81;72.53
73509;SHT30;61750;55.036;73.312;2023-02-18T00:48:28;-13.81;72.30
73509;SHT30;61750;55.036;73.312;2023-02-18T00:50:54;-13.74;72.37
73509;SHT30;61750;55.036;73.312;2023-02-18T00:53:32;-13.74;72.16
73509;SHT30;61750;55.036;73.312;2023-02-18T00:56:09;-13.77;72.10
73509;SHT30;61750;55.036;73.312;2023-02-18T00:58:35;-13.71;72.28
73509;SHT30;61750;55.036;73.312;2023-02-18T01:01:13;-13.71;72.27
73509;SHT30;61750;55.036;73.312;2023-02-18T01:03:44;-13.73;72.03
73509;SHT30;61750;55.036;73.312;2023-02-18T01:06:10;-13.66;72.38
73509;SHT30;61750;55.036;73.312;2023-02-18T01:08:46;-13.71;71.78
73509;SHT30;61750;55.036;73.312;2023-02-18T01:11:12;-13.73;71.91
73509;SHT30;61750;55.036;73.312;2023-02-18T01:13:39;-13.78;71.78
73509;SHT30;61750;55.036;73.312;2023-02-18T01:16:05;-13.80;72.03
73509;SHT30;61750;55.036;73.312;2023-02-18T01:18:33;-13.86;72.05
73509;SHT30;61750;55.036;73.312;2023-02-18T01:21:05;-13.86;72.26
73509;SHT30;61750;55.036;73.312;2023-02-18T01:23:38;-13.90;72.30
73509;SHT30;61750;55.036;73.312;2023-02-18T01:26:05;-13.90;72.35
73509;SHT30;61750;55.036;73.312;2023-02-18T01:28:31;-13.84;72.36
73509;SHT30;61750;55.036;73.312;2023-02-18T01:30:57;-13.81;72.47
73509;SHT30;61750;55.036;73.312;2023-02-18T01:33:24;-13.78;72.52
73509;SHT30;61750;55.036;73.312;2023-02-18T01:35:52;-13.76;72.41
73509;SHT30;61750;55.036;73.312;2023-02-18T01:38:19;-13.71;72.53
73509;SHT30;61750;55.036;73.312;2023-02-18T01:40:52;-13.70;72.39
73509;SHT30;61750;55.036;73.312;2023-02-18T01:43:20;-13.69;72.35
73509;SHT30;61750;55.036;73.312;2023-02-18T01:50:56;-13.59;72.17
73509;SHT30;61750;55.036;73.312;2023-02-18T01:53:35;-13.59;71.96
73509;SHT30;61750;55.036;73.312;2023-02-18T01:56:05;-13.60;71.90
73509;SHT30;61750;55.036;73.312;2023-02-18T01:58:33;-13.59;71.98
73509;SHT30;61750;55.036;73.312;2023-02-18T02:01:11;-13.57;72.08
73509;SHT30;61750;55.036;73.312;2023-02-18T02:03:42;-13.54;71.91
73509;SHT30;61750;55.036;73.312;2023-02-18T02:06:11;-13.54;71.97
73509;SHT30;61750;55.036;73.312;2023-02-18T02:08:39;-13.53;71.97
73509;SHT30;61750;55.036;73.312;2023-02-18T02:11:28;-13.49;72.07
73509;SHT30;61750;55.036;73.312;2023-02-18T02:16:54;-13.44;71.96
73509;SHT30;61750;55.036;73.312;2023-02-18T02:33:42;-13.60;71.82
73509;SHT30;61750;55.036;73.312;2023-02-18T02:36:14;-13.59;72.00
73509;SHT30;61750;55.036;73.312;2023-02-18T02:41:31;-13.56;71.99
73509;SHT30;61750;55.036;73.312;2023-02-18T02:46:46;-13.62;71.93
73509;SHT30;61750;55.036;73.312;2023-02-18T02:54:39;-13.59;72.00
73509;SHT30;61750;55.036;73.312;2023-02-18T02:59:57;-13.44;72.15
73509;SHT30;61750;55.036;73.312;2023-02-18T03:02:30;-13.39;71.82
73509;SHT30;61750;55.036;73.312;2023-02-18T03:05:14;-13.36;71.83
73509;SHT30;61750;55.036;73.312;2023-02-18T03:10:55;-13.25;71.68
73509;SHT30;61750;55.036;73.312;2023-02-18T03:19:28;-13.12;70.88
73509;SHT30;61750;55.036;73.312;2023-02-18T03:21:34;-13.04;70.67
73509;SHT30;61750;55.036;73.312;2023-02-18T03:24:17;-12.99;70.70
73509;SHT30;61750;55.036;73.312;2023-02-18T03:26:49;-12.97;70.32
73509;SHT30;61750;55.036;73.312;2023-02-18T03:29:18;-12.87;70.56
73509;SHT30;61750;55.036;73.312;2023-02-18T03:32:02;-12.83;70.12
73509;SHT30;61750;55.036;73.312;2023-02-18T03:34:30;-12.77;70.16
73509;SHT30;61750;55.036;73.312;2023-02-18T03:37:02;-12.68;70.02
73509;SHT30;61750;55.036;73.312;2023-02-18T03:39:30;-12.63;69.57
73509;SHT30;61750;55.036;73.312;2023-02-18T03:41:57;-12.56;69.44
73509;SHT30;61750;55.036;73.312;2023-02-18T03:44:24;-12.47;69.30
73509;SHT30;61750;55.036;73.312;2023-02-18T03:46:56;-12.40;69.25
73509;SHT30;61750;55.036;73.312;2023-02-18T03:49:22;-12.33;68.96
73509;SHT30;61750;55.036;73.312;2023-02-18T03:51:48;-12.28;68.85
73509;SHT30;61750;55.036;73.312;2023-02-18T03:54:14;-12.22;68.80
73509;SHT30;61750;55.036;73.312;2023-02-18T03:56:41;-12.19;68.74
73509;SHT30;61750;55.036;73.312;2023-02-18T03:59:07;-12.06;68.82
73509;SHT30;61750;55.036;73.312;2023-02-18T04:01:34;-12.03;68.69
73509;SHT30;61750;55.036;73.312;2023-02-18T04:04:00;-11.86;68.53
73509;SHT30;61750;55.036;73.312;2023-02-18T04:06:28;-11.81;67.99
73509;SHT30;61750;55.036;73.312;2023-02-18T04:08:54;-11.68;67.81
73509;SHT30;61750;55.036;73.312;2023-02-18T04:11:20;-11.65;67.48
73509;SHT30;61750;55.036;73.312;2023-02-18T04:13:46;-11.54;67.72
73509;SHT30;61750;55.036;73.312;2023-02-18T04:16:12;-11.40;67.37
73509;SHT30;61750;55.036;73.312;2023-02-18T04:18:38;-11.20;67.15
73509;SHT30;61750;55.036;73.312;2023-02-18T04:21:04;-11.20;66.54
73509;SHT30;61750;55.036;73.312;2023-02-18T04:23:30;-11.19;66.36
73509;SHT30;61750;55.036;73.312;2023-02-18T04:25:57;-11.16;66.38
73509;SHT30;61750;55.036;73.312;2023-02-18T04:28:23;-11.19;66.39
73509;SHT30;61750;55.036;73.312;2023-02-18T04:30:59;-11.20;66.41
73509;SHT30;61750;55.036;73.312;2023-02-18T04:33:25;-11.00;67.05
73509;SHT30;61750;55.036;73.312;2023-02-18T04:35:52;-10.77;66.41
73509;SHT30;61750;55.036;73.312;2023-02-18T04:38:18;-10.62;65.67
73509;SHT30;61750;55.036;73.312;2023-02-18T04:40:52;-10.66;64.94
73509;SHT30;61750;55.036;73.312;2023-02-18T04:43:28;-10.48;64.81
73509;SHT30;61750;55.036;73.312;2023-02-18T04:46:05;-10.48;64.35
73509;SHT30;61750;55.036;73.312;2023-02-18T04:48:31;-10.48;64.36
73509;SHT30;61750;55.036;73.312;2023-02-18T04:50:57;-10.45;64.43
73509;SHT30;61750;55.036;73.312;2023-02-18T04:53:33;-10.36;64.56
73509;SHT30;61750;55.036;73.312;2023-02-18T04:56:00;-10.32;64.12
73509;SHT30;61750;55.036;73.312;2023-02-18T04:58:26;-10.21;63.80
73509;SHT30;61750;55.036;73.312;2023-02-18T05:01:03;-10.22;63.50
73509;SHT30;61750;55.036;73.312;2023-02-18T05:03:32;-10.03;63.82
73509;SHT30;61750;55.036;73.312;2023-02-18T05:05:58;-9.91;63.07
73509;SHT30;61750;55.036;73.312;2023-02-18T05:08:24;-9.93;62.28
73509;SHT30;61750;55.036;73.312;2023-02-18T05:10:53;-9.84;62.27
73509;SHT30;61750;55.036;73.312;2023-02-18T05:13:19;-9.83;62.29
73509;SHT30;61750;55.036;73.312;2023-02-18T05:15:52;-9.75;62.44
73509;SHT30;61750;55.036;73.312;2023-02-18T05:18:18;-10.01;62.31
73509;SHT30;61750;55.036;73.312;2023-02-18T05:20:52;-10.05;62.91
73509;SHT30;61750;55.036;73.312;2023-02-18T05:23:18;-10.11;63.22
73509;SHT30;61750;55.036;73.312;2023-02-18T05:25:46;-9.89;63.60
73509;SHT30;61750;55.036;73.312;2023-02-18T05:28:16;-9.84;62.51
73509;SHT30;61750;55.036;73.312;2023-02-18T05:30:55;-9.66;62.92
73509;SHT30;61750;55.036;73.312;2023-02-18T05:33:21;-9.53;62.23
73509;SHT30;61750;55.036;73.312;2023-02-18T05:35:52;-9.39;61.86
73509;SHT30;61750;55.036;73.312;2023-02-18T05:38:23;-9.26;61.70
73509;SHT30;61750;55.036;73.312;2023-02-18T05:40:52;-9.15;60.99
73509;SHT30;61750;55.036;73.312;2023-02-18T05:43:18;-8.95;61.16
73509;SHT30;61750;55.036;73.312;2023-02-18T05:45:52;-8.92;60.21
73509;SHT30;61750;55.036;73.312;2023-02-18T05:48:18;-8.92;60.61
73509;SHT30;61750;55.036;73.312;2023-02-18T05:50:53;-8.92;60.58
73509;SHT30;61750;55.036;73.312;2023-02-18T05:53:19;-8.99;60.61
73509;SHT30;61750;55.036;73.312;2023-02-18T05:55:45;-8.96;60.58
73509;SHT30;61750;55.036;73.312;2023-02-18T05:58:11;-8.52;60.54
73509;SHT30;61750;55.036;73.312;2023-02-18T06:00:57;-8.67;59.69
73509;SHT30;61750;55.036;73.312;2023-02-18T06:03:23;-8.67;59.69
73509;SHT30;61750;55.036;73.312;2023-02-18T06:05:54;-8.62;60.03
73509;SHT30;61750;55.036;73.312;2023-02-18T06:08:20;-8.57;59.96
73509;SHT30;61750;55.036;73.312;2023-02-18T06:10:56;-8.75;59.82
73509;SHT30;61750;55.036;73.312;2023-02-18T06:13:23;-8.87;60.99
73509;SHT30;61750;55.036;73.312;2023-02-18T06:15:52;-8.61;60.54
73509;SHT30;61750;55.036;73.312;2023-02-18T06:18:20;-8.64;59.66
73509;SHT30;61750;55.036;73.312;2023-02-18T06:20:52;-8.64;60.05
73509;SHT30;61750;55.036;73.312;2023-02-18T06:23:24;-8.77;59.71
73509;SHT30;61750;55.036;73.312;2023-02-18T06:25:50;-8.85;60.63
73509;SHT30;61750;55.036;73.312;2023-02-18T06:28:20;-8.71;60.75
73509;SHT30;61750;55.036;73.312;2023-02-18T06:30:52;-8.71;60.89
73509;SHT30;61750;55.036;73.312;2023-02-18T06:33:18;-8.64;60.05
73509;SHT30;61750;55.036;73.312;2023-02-18T06:35:55;-8.36;60.63
73509;SHT30;61750;55.036;73.312;2023-02-18T06:38:24;-8.20;59.87
73509;SHT30;61750;55.036;73.312;2023-02-18T06:40:52;-8.36;59.84
73509;SHT30;61750;55.036;73.312;2023-02-18T06:43:21;-8.24;59.78
73509;SHT30;61750;55.036;73.312;2023-02-18T06:45:54;-8.20;59.40
73509;SHT30;61750;55.036;73.312;2023-02-18T06:48:24;-8.34;59.58
73509;SHT30;61750;55.036;73.312;2023-02-18T06:51:00;-8.30;60.17
73509;SHT30;61750;55.036;73.312;2023-02-18T06:53:28;-8.30;59.68
73509;SHT30;61750;55.036;73.312;2023-02-18T06:56:09;-8.19;60.04
73509;SHT30;61750;55.036;73.312;2023-02-18T06:58:35;-7.92;59.77
73509;SHT30;61750;55.036;73.312;2023-02-18T07:01:01;-7.63;59.17
73509;SHT30;61750;55.036;73.312;2023-02-18T07:03:27;-7.65;58.37
73509;SHT30;61750;55.036;73.312;2023-02-18T07:05:53;-7.51;57.90
73509;SHT30;61750;55.036;73.312;2023-02-18T07:08:19;-7.34;57.52
73509;SHT30;61750;55.036;73.312;2023-02-18T07:10:58;-7.22;57.40
73509;SHT30;61750;55.036;73.312;2023-02-18T07:13:27;-7.03;57.58
73509;SHT30;61750;55.036;73.312;2023-02-18T07:16:00;-7.21;56.91
73509;SHT30;61750;55.036;73.312;2023-02-18T07:18:35;-7.18;56.97
73509;SHT30;61750;55.036;73.312;2023-02-18T07:21:01;-7.27;57.04
73509;SHT30;61750;55.036;73.312;2023-02-18T07:23:39;-7.38;57.12
73509;SHT30;61750;55.036;73.312;2023-02-18T07:26:06;-7.34;57.59
73509;SHT30;61750;55.036;73.312;2023-02-18T07:28:32;-7.27;57.86
73509;SHT30;61750;55.036;73.312;2023-02-18T07:31:01;-7.17;57.45
73509;SHT30;61750;55.036;73.312;2023-02-18T07:33:27;-7.15;57.82
73509;SHT30;61750;55.036;73.312;2023-02-18T07:35:57;-7.14;57.96
73509;SHT30;61750;55.036;73.312;2023-02-18T07:38:25;-6.96;57.94
73509;SHT30;61750;55.036;73.312;2023-02-18T07:40:52;-6.75;57.04
73509;SHT30;61750;55.036;73.312;2023-02-18T07:43:19;-6.54;57.26
73509;SHT30;61750;55.036;73.312;2023-02-18T07:45:55;-6.45;56.75
73509;SHT30;61750;55.036;73.312;2023-02-18T07:48:22;-6.28;55.85
73509;SHT30;61750;55.036;73.312;2023-02-18T07:50:52;-6.18;55.36
73509;SHT30;61750;55.036;73.312;2023-02-18T07:53:23;-6.12;55.18
73509;SHT30;61750;55.036;73.312;2023-02-18T07:55:56;-6.09;55.75
73509;SHT30;61750;55.036;73.312;2023-02-18T07:58:31;-6.02;55.21
73509;SHT30;61750;55.036;73.312;2023-02-18T08:00:57;-6.09;55.20
73509;SHT30;61750;55.036;73.312;2023-02-18T08:03:29;-6.28;55.31
73509;SHT30;61750;55.036;73.312;2023-02-18T08:05:56;-6.02;55.79
73509;SHT30;61750;55.036;73.312;2023-02-18T08:08:23;-6.11;54.99
73509;SHT30;61750;55.036;73.312;2023-02-18T08:10:53;-5.98;55.96
73509;SHT30;61750;55.036;73.312;2023-02-18T08:13:19;-5.82;55.29
73509;SHT30;61750;55.036;73.312;2023-02-18T08:15:56;-6.06;54.91
73509;SHT30;61750;55.036;73.312;2023-02-18T08:18:24;-6.05;55.50
73509;SHT30;61750;55.036;73.312;2023-02-18T08:20:52;-5.91;55.61
73509;SHT30;61750;55.036;73.312;2023-02-18T08:23:19;-5.99;54.12
73509;SHT30;61750;55.036;73.312;2023-02-18T08:25:51;-6.02;55.36
73509;SHT30;61750;55.036;73.312;2023-02-18T08:28:23;-5.84;55.39
73509;SHT30;61750;55.036;73.312;2023-02-18T08:30:55;-5.74;54.79
73509;SHT30;61750;55.036;73.312;2023-02-18T08:33:27;-5.92;54.71
73509;SHT30;61750;55.036;73.312;2023-02-18T08:35:54;-5.71;55.42
73509;SHT30;61750;55.036;73.312;2023-02-18T08:38:21;-5.60;55.27
73509;SHT30;61750;55.036;73.312;2023-02-18T08:41:00;-5.66;54.94
73509;SHT30;61750;55.036;73.312;2023-02-18T08:43:26;-5.75;54.47
73509;SHT30;61750;55.036;73.312;2023-02-18T08:45:56;-6.12;54.90
73509;SHT30;61750;55.036;73.312;2023-02-18T08:48:29;-6.02;56.70
73509;SHT30;61750;55.036;73.312;2023-02-18T08:50:55;-5.75;55.60
73509;SHT30;61750;55.036;73.312;2023-02-18T08:53:21;-5.68;54.93
73509;SHT30;61750;55.036;73.312;2023-02-18T08:55:53;-5.50;55.52
73509;SHT30;61750;55.036;73.312;2023-02-18T08:58:29;-5.53;54.95
73509;SHT30;61750;55.036;73.312;2023-02-18T09:00:55;-5.56;55.34
73509;SHT30;61750;55.036;73.312;2023-02-18T09:03:26;-5.66;55.44
73509;SHT30;61750;55.036;73.312;2023-02-18T09:05:57;-5.64;54.81
73509;SHT30;61750;55.036;73.312;2023-02-18T09:08:23;-5.85;55.45
73509;SHT30;61750;55.036;73.312;2023-02-18T09:10:56;-6.13;55.25
73509;SHT30;61750;55.036;73.312;2023-02-18T09:13:22;-6.21;56.28
73509;SHT30;61750;55.036;73.312;2023-02-18T09:16:02;-6.15;56.33
73509;SHT30;61750;55.036;73.312;2023-02-18T09:18:30;-6.12;56.45
73509;SHT30;61750;55.036;73.312;2023-02-18T09:21:03;-6.30;55.88
73509;SHT30;61750;55.036;73.312;2023-02-18T09:23:30;-6.90;57.62
73509;SHT30;61750;55.036;73.312;2023-02-18T09:26:08;-6.70;59.08
73509;SHT30;61750;55.036;73.312;2023-02-18T09:28:39;-6.47;57.66
73509;SHT30;61750;55.036;73.312;2023-02-18T09:31:06;-6.56;58.02
73509;SHT30;61750;55.036;73.312;2023-02-18T09:33:36;-6.43;58.17
73509;SHT30;61750;55.036;73.312;2023-02-18T09:36:03;-6.47;57.13
73509;SHT30;61750;55.036;73.312;2023-02-18T09:38:29;-7.03;57.85
73509;SHT30;61750;55.036;73.312;2023-02-18T09:41:00;-7.27;59.45
73509;SHT30;61750;55.036;73.312;2023-02-18T09:43:35;-7.11;59.42
73509;SHT30;61750;55.036;73.312;2023-02-18T09:46:03;-7.01;59.21
73509;SHT30;61750;55.036;73.312;2023-02-18T09:48:31;-7.08;59.27
73509;SHT30;61750;55.036;73.312;2023-02-18T09:51:03;-7.12;59.09
73509;SHT30;61750;55.036;73.312;2023-02-18T09:53:29;-7.11;59.58
73509;SHT30;61750;55.036;73.312;2023-02-18T09:55:56;-7.52;59.58
73509;SHT30;61750;55.036;73.312;2023-02-18T09:58:32;-7.55;61.17
73509;SHT30;61750;55.036;73.312;2023-02-18T10:01:19;-7.63;60.58
73509;SHT30;61750;55.036;73.312;2023-02-18T10:03:50;-7.62;60.81
73509;SHT30;61750;55.036;73.312;2023-02-18T10:06:18;-7.56;61.00
73509;SHT30;61750;55.036;73.312;2023-02-18T10:08:53;-7.48;61.78
73509;SHT30;61750;55.036;73.312;2023-02-18T10:14:00;-7.49;61.37
73509;SHT30;61750;55.036;73.312;2023-02-18T10:16:32;-7.66;60.82
73509;SHT30;61750;55.036;73.312;2023-02-18T10:19:04;-7.96;61.17
73509;SHT30;61750;55.036;73.312;2023-02-18T10:21:44;-8.23;61.45
73509;SHT30;61750;55.036;73.312;2023-02-18T10:24:57;-8.45;62.39
73509;SHT30;61750;55.036;73.312;2023-02-18T10:27:04;-8.65;63.09
73509;SHT30;61750;55.036;73.312;2023-02-18T10:29:30;-8.80;63.25
73509;SHT30;61750;55.036;73.312;2023-02-18T10:36:57;-9.18;65.72
73509;SHT30;61750;55.036;73.312;2023-02-18T10:42:13;-9.30;65.50
73509;SHT30;61750;55.036;73.312;2023-02-18T10:44:59;-9.44;65.61
73509;SHT30;61750;55.036;73.312;2023-02-18T10:50:52;-9.46;66.34
73509;SHT30;61750;55.036;73.312;2023-02-18T10:55:54;-9.42;66.79
73509;SHT30;61750;55.036;73.312;2023-02-18T11:01:03;-9.54;66.76
73509;SHT30;61750;55.036;73.312;2023-02-18T11:06:15;-9.60;66.81
73509;SHT30;61750;55.036;73.312;2023-02-18T11:08:52;-9.42;67.65
73509;SHT30;61750;55.036;73.312;2023-02-18T11:11:29;-9.47;66.71
73509;SHT30;61750;55.036;73.312;2023-02-18T11:13:57;-9.44;66.97
73509;SHT30;61750;55.036;73.312;2023-02-18T11:17:01;-9.44;66.94
73509;SHT30;61750;55.036;73.312;2023-02-18T11:19:31;-9.54;66.48
73509;SHT30;61750;55.036;73.312;2023-02-18T11:22:23;-9.59;67.10
73509;SHT30;61750;55.036;73.312;2023-02-18T11:24:54;-9.67;67.05
73509;SHT30;61750;55.036;73.312;2023-02-18T11:30:53;-9.70;67.63
73509;SHT30;61750;55.036;73.312;2023-02-18T11:33:33;-9.84;67.22
73509;SHT30;61750;55.036;73.312;2023-02-18T11:36:15;-9.87;67.58
73509;SHT30;61750;55.036;73.312;2023-02-18T11:38:46;-9.94;67.34
73509;SHT30;61750;55.036;73.312;2023-02-18T11:41:17;-10.00;67.16
73509;SHT30;61750;55.036;73.312;2023-02-18T11:43:47;-10.01;68.01
73509;SHT30;61750;55.036;73.312;2023-02-18T11:46:16;-10.07;67.79
73509;SHT30;61750;55.036;73.312;2023-02-18T11:48:53;-10.00;68.48
73509;SHT30;61750;55.036;73.312;2023-02-18T11:51:20;-9.98;68.20
73509;SHT30;61750;55.036;73.312;2023-02-18T11:56:27;-10.17;67.57
73509;SHT30;61750;55.036;73.312;2023-02-18T11:58:54;-10.21;67.89
73509;SHT30;61750;55.036;73.312;2023-02-18T12:01:35;-10.15;68.34
73509;SHT30;61750;55.036;73.312;2023-02-18T12:06:51;-10.15;68.66
73509;SHT30;61750;55.036;73.312;2023-02-18T12:09:24;-10.15;68.99
73509;SHT30;61750;55.036;73.312;2023-02-18T12:11:52;-10.22;68.85
73509;SHT30;61750;55.036;73.312;2023-02-18T12:14:20;-10.21;69.17
73509;SHT30;61750;55.036;73.312;2023-02-18T12:22:22;-10.39;69.98
73509;SHT30;61750;55.036;73.312;2023-02-18T12:25:03;-10.42;70.72
73509;SHT30;61750;55.036;73.312;2023-02-18T12:30:20;-10.59;71.85
73509;SHT30;61750;55.036;73.312;2023-02-18T12:47:37;-10.77;74.58
73509;SHT30;61750;55.036;73.312;2023-02-18T13:04:53;-11.10;75.56
73509;SHT30;61750;55.036;73.312;2023-02-18T13:10:01;-11.16;75.62
73509;SHT30;61750;55.036;73.312;2023-02-18T13:12:42;-11.13;76.02
73509;SHT30;61750;55.036;73.312;2023-02-18T13:15:30;-11.04;76.16
73509;SHT30;61750;55.036;73.312;2023-02-18T13:17:59;-10.99;76.21
73509;SHT30;61750;55.036;73.312;2023-02-18T13:20:56;-11.01;76.08
73509;SHT30;61750;55.036;73.312;2023-02-18T13:23:25;-11.06;76.30
73509;SHT30;61750;55.036;73.312;2023-02-18T13:26:00;-11.11;76.46
73509;SHT30;61750;55.036;73.312;2023-02-18T13:39:03;-11.11;76.59
73509;SHT30;61750;55.036;73.312;2023-02-18T13:41:34;-11.13;76.49
73509;SHT30;61750;55.036;73.312;2023-02-18T13:51:49;-11.14;76.71
73509;SHT30;61750;55.036;73.312;2023-02-18T13:54:30;-11.13;76.70
73509;SHT30;61750;55.036;73.312;2023-02-18T13:57:01;-11.14;76.62
73509;SHT30;61750;55.036;73.312;2023-02-18T13:59:40;-11.14;76.77
73509;SHT30;61750;55.036;73.312;2023-02-18T14:02:29;-11.21;76.67
73509;SHT30;61750;55.036;73.312;2023-02-18T14:12:36;-11.34;77.98
73509;SHT30;61750;55.036;73.312;2023-02-18T14:17:48;-11.35;78.43
73509;SHT30;61750;55.036;73.312;2023-02-18T14:20:56;-11.38;78.34
73509;SHT30;61750;55.036;73.312;2023-02-18T14:26:07;-11.37;78.00
73509;SHT30;61750;55.036;73.312;2023-02-18T14:49:35;-11.43;77.21
73509;SHT30;61750;55.036;73.312;2023-02-18T14:52:03;-11.37;76.94
73509;SHT30;61750;55.036;73.312;2023-02-18T14:54:30;-11.41;76.95
73509;SHT30;61750;55.036;73.312;2023-02-18T14:59:23;-11.43;77.34
73509;SHT30;61750;55.036;73.312;2023-02-18T15:01:52;-11.41;77.19
73509;SHT30;61750;55.036;73.312;2023-02-18T15:04:28;-11.41;77.27
73509;SHT30;61750;55.036;73.312;2023-02-18T15:06:58;-11.44;77.08
73509;SHT30;61750;55.036;73.312;2023-02-18T15:09:24;-11.35;77.54
73509;SHT30;61750;55.036;73.312;2023-02-18T15:12:00;-11.43;77.20
73509;SHT30;61750;55.036;73.312;2023-02-18T15:14:36;-11.44;76.67
73509;SHT30;61750;55.036;73.312;2023-02-18T15:17:03;-11.44;76.86
73509;SHT30;61750;55.036;73.312;2023-02-18T15:22:25;-11.62;76.84
73509;SHT30;61750;55.036;73.312;2023-02-18T15:24:56;-11.75;76.86
73509;SHT30;61750;55.036;73.312;2023-02-18T15:27:27;-11.82;77.24
73509;SHT30;61750;55.036;73.312;2023-02-18T15:29:58;-11.85;77.58
73509;SHT30;61750;55.036;73.312;2023-02-18T15:32:25;-11.83;77.59
73509;SHT30;61750;55.036;73.312;2023-02-18T15:34:58;-11.86;77.36
73509;SHT30;61750;55.036;73.312;2023-02-18T15:37:28;-11.90;77.06
73509;SHT30;61750;55.036;73.312;2023-02-18T15:39:55;-11.93;77.04
73509;SHT30;61750;55.036;73.312;2023-02-18T15:42:27;-11.93;77.11
73509;SHT30;61750;55.036;73.312;2023-02-18T15:44:56;-11.88;77.54
73509;SHT30;61750;55.036;73.312;2023-02-18T15:47:32;-11.88;77.30
73509;SHT30;61750;55.036;73.312;2023-02-18T15:49:59;-11.96;77.05
73509;SHT30;61750;55.036;73.312;2023-02-18T15:52:27;-12.00;76.96
73509;SHT30;61750;55.036;73.312;2023-02-18T15:54:54;-12.03;77.26
73509;SHT30;61750;55.036;73.312;2023-02-18T15:57:22;-12.05;77.44
73509;SHT30;61750;55.036;73.312;2023-02-18T16:00:26;-12.00;77.42
73509;SHT30;61750;55.036;73.312;2023-02-18T16:03:03;-11.98;77.60
73509;SHT30;61750;55.036;73.312;2023-02-18T16:08:45;-11.98;77.48
73509;SHT30;61750;55.036;73.312;2023-02-18T16:11:22;-11.95;77.58
73509;SHT30;61750;55.036;73.312;2023-02-18T16:13:48;-11.95;77.53
73509;SHT30;61750;55.036;73.312;2023-02-18T16:16:33;-11.89;77.80
73509;SHT30;61750;55.036;73.312;2023-02-18T16:19:05;-12.02;77.26
73509;SHT30;61750;55.036;73.312;2023-02-18T16:21:38;-12.09;77.46
73509;SHT30;61750;55.036;73.312;2023-02-18T16:24:24;-12.10;77.73
73509;SHT30;61750;55.036;73.312;2023-02-18T16:27:01;-12.05;78.01
73509;SHT30;61750;55.036;73.312;2023-02-18T16:29:40;-12.10;77.77
73509;SHT30;61750;55.036;73.312;2023-02-18T16:32:08;-12.15;77.49
73509;SHT30;61750;55.036;73.312;2023-02-18T16:34:34;-12.10;77.83
73509;SHT30;61750;55.036;73.312;2023-02-18T16:37:01;-12.15;77.57
73509;SHT30;61750;55.036;73.312;2023-02-18T16:39:56;-12.16;77.51
73509;SHT30;61750;55.036;73.312;2023-02-18T16:42:22;-12.16;77.65
73509;SHT30;61750;55.036;73.312;2023-02-18T16:44:48;-12.13;77.66
73509;SHT30;61750;55.036;73.312;2023-02-18T16:47:27;-12.13;77.66
73509;SHT30;61750;55.036;73.312;2023-02-18T16:49:53;-12.10;77.59
73509;SHT30;61750;55.036;73.312;2023-02-18T16:52:21;-12.16;77.41
73509;SHT30;61750;55.036;73.312;2023-02-18T16:54:47;-12.20;77.45
73509;SHT30;61750;55.036;73.312;2023-02-18T16:57:14;-12.26;77.41
73509;SHT30;61750;55.036;73.312;2023-02-18T16:59:40;-12.26;77.66
73509;SHT30;61750;55.036;73.312;2023-02-18T17:02:11;-12.30;77.77
73509;SHT30;61750;55.036;73.312;2023-02-18T17:04:40;-12.32;77.66
73509;SHT30;61750;55.036;73.312;2023-02-18T17:07:09;-12.32;77.78
73509;SHT30;61750;55.036;73.312;2023-02-18T17:09:35;-12.34;77.62
73509;SHT30;61750;55.036;73.312;2023-02-18T17:12:01;-12.36;77.52
73509;SHT30;61750;55.036;73.312;2023-02-18T17:14:32;-12.36;77.38
73509;SHT30;61750;55.036;73.312;2023-02-18T17:17:08;-12.36;77.17
73509;SHT30;61750;55.036;73.312;2023-02-18T17:19:35;-12.36;77.11
73509;SHT30;61750;55.036;73.312;2023-02-18T17:22:01;-12.37;77.18
73509;SHT30;61750;55.036;73.312;2023-02-18T17:24:27;-12.42;77.05
73509;SHT30;61750;55.036;73.312;2023-02-18T17:26:53;-12.49;76.94
73509;SHT30;61750;55.036;73.312;2023-02-18T17:29:29;-12.53;77.14
73509;SHT30;61750;55.036;73.312;2023-02-18T17:31:55;-12.53;77.16
73509;SHT30;61750;55.036;73.312;2023-02-18T17:34:28;-12.59;77.21
73509;SHT30;61750;55.036;73.312;2023-02-18T17:36:55;-12.63;77.29
73509;SHT30;61750;55.036;73.312;2023-02-18T17:39:21;-12.70;77.26
73509;SHT30;61750;55.036;73.312;2023-02-18T17:41:49;-12.68;77.43
73509;SHT30;61750;55.036;73.312;2023-02-18T17:44:25;-12.77;77.54
73509;SHT30;61750;55.036;73.312;2023-02-18T17:46:52;-12.80;77.70
73509;SHT30;61750;55.036;73.312;2023-02-18T17:49:29;-12.88;77.73
73509;SHT30;61750;55.036;73.312;2023-02-18T17:52:05;-12.89;77.94
73509;SHT30;61750;55.036;73.312;2023-02-18T17:54:31;-12.97;78.02
73509;SHT30;61750;55.036;73.312;2023-02-18T17:56:57;-13.02;78.16
73509;SHT30;61750;55.036;73.312;2023-02-18T17:59:28;-13.08;78.32
73509;SHT30;61750;55.036;73.312;2023-02-18T18:01:55;-13.15;78.44
73509;SHT30;61750;55.036;73.312;2023-02-18T18:04:21;-13.19;78.71
73509;SHT30;61750;55.036;73.312;2023-02-18T18:06:48;-13.26;78.77
73509;SHT30;61750;55.036;73.312;2023-02-18T18:09:14;-13.29;78.91
73509;SHT30;61750;55.036;73.312;2023-02-18T18:11:50;-13.32;78.91
73509;SHT30;61750;55.036;73.312;2023-02-18T18:14:16;-13.35;79.04
73509;SHT30;61750;55.036;73.312;2023-02-18T18:16:42;-13.36;79.17
73509;SHT30;61750;55.036;73.312;2023-02-18T18:19:08;-13.38;79.19
73509;SHT30;61750;55.036;73.312;2023-02-18T18:21:34;-13.43;79.22
73509;SHT30;61750;55.036;73.312;2023-02-18T18:24:12;-13.49;79.37
73509;SHT30;61750;55.036;73.312;2023-02-18T18:26:38;-13.50;79.50